^^
Your Local Weather - Clay, NY Station Historical Data
Daily Summary for August 25, 2017 Units:  English    Metric   Both
« Previous Day
Next Day »
Daily Weekly Monthly Yearly Custom
  High: Low: Average:
Temperature: 70.1 °F 50.4 °F 61 °F
Dew Point: 55.8 °F 46.5 °F 51.7 °F
Humidity: 93% 45% 74%
Wind Speed: 4.0mph 0.0mph 0.7mph
Wind Gust: 9.0mph - -
Wind- - WNW
Pressure: 30.22 in 30.00 in -
Precipitation: 0.00 in    
Historical Graphs
 
 
Tabular Data for August 25, 2017
Time Temperature Dew Point Pressure Wind Wind Speed Wind Gust Humidity Rainfall Rate (Hourly) solar
00:02 56.6 °F 54.3 °F 30.00 in Calm     92% 0.00 in 0 W/m2
00:08 56.6 °F 54.0 °F 30.00 in Calm     91% 0.00 in 0 W/m2
00:14 56.6 °F 54.0 °F 30.00 in Calm     91% 0.00 in 0 W/m2
00:20 56.6 °F 54.0 °F 30.00 in Calm     91% 0.00 in 0 W/m2
00:25 56.6 °F 54.0 °F 30.00 in Calm     91% 0.00 in 0 W/m2
00:32 56.8 °F 54.5 °F 30.00 in Calm     92% 0.00 in 0 W/m2
00:38 56.9 °F 54.3 °F 30.00 in Calm     91% 0.00 in 0 W/m2
00:43 57.1 °F 54.5 °F 30.00 in Calm   2.0 mph 91% 0.00 in 0 W/m2
00:50 57.4 °F 54.8 °F 30.00 in Calm     91% 0.00 in 0 W/m2
00:55 57.6 °F 55.0 °F 30.00 in Calm     91% 0.00 in 0 W/m2
01:02 57.7 °F 54.8 °F 30.01 in Calm     90% 0.00 in 0 W/m2
01:08 57.8 °F 54.9 °F 30.01 in Calm     90% 0.00 in 0 W/m2
01:14 57.9 °F 54.7 °F 30.01 in Calm     89% 0.00 in 0 W/m2
01:19 58.0 °F 54.8 °F 30.01 in Calm     89% 0.00 in 0 W/m2
01:25 58.1 °F 54.9 °F 30.01 in Calm     89% 0.00 in 0 W/m2
01:32 58.1 °F 54.9 °F 30.01 in Calm     89% 0.00 in 0 W/m2
01:38 58.2 °F 55.0 °F 30.01 in Calm     89% 0.00 in 0 W/m2
01:43 58.2 °F 54.7 °F 30.01 in Calm     88% 0.00 in 0 W/m2
01:49 58.2 °F 54.7 °F 30.01 in Calm     88% 0.00 in 0 W/m2
01:56 58.2 °F 54.7 °F 30.01 in Calm     88% 0.00 in 0 W/m2
02:02 58.1 °F 54.6 °F 30.01 in Calm     88% 0.00 in 0 W/m2
02:08 58.1 °F 54.6 °F 30.01 in Calm     88% 0.00 in 0 W/m2
02:13 58.0 °F 54.5 °F 30.01 in Calm     88% 0.00 in 0 W/m2
02:20 57.8 °F 54.3 °F 30.01 in Calm     88% 0.00 in 0 W/m2
02:26 57.7 °F 54.2 °F 30.01 in Calm     88% 0.00 in 0 W/m2
02:32 57.6 °F 54.1 °F 30.01 in Calm     88% 0.00 in 0 W/m2
02:38 57.5 °F 54.3 °F 30.01 in Calm     89% 0.00 in 0 W/m2
02:43 57.5 °F 54.3 °F 30.01 in Calm     89% 0.00 in 0 W/m2
02:49 57.4 °F 54.2 °F 30.01 in Calm     89% 0.00 in 0 W/m2
02:55 57.4 °F 54.5 °F 30.02 in Calm     90% 0.00 in 0 W/m2
03:02 57.2 °F 54.0 °F 30.02 in Calm     89% 0.00 in 0 W/m2
03:08 57.0 °F 54.1 °F 30.02 in Calm     90% 0.00 in 0 W/m2
03:13 56.8 °F 53.9 °F 30.02 in Calm     90% 0.00 in 0 W/m2
03:19 56.7 °F 53.8 °F 30.02 in Calm   1.0 mph 90% 0.00 in 0 W/m2
03:26 56.7 °F 53.8 °F 30.02 in Calm   1.0 mph 90% 0.00 in 0 W/m2
03:32 56.8 °F 53.9 °F 30.03 in Calm   1.0 mph 90% 0.00 in 0 W/m2
03:38 56.8 °F 53.9 °F 30.02 in Calm   1.0 mph 90% 0.00 in 0 W/m2
03:43 56.9 °F 54.0 °F 30.03 in Calm   1.0 mph 90% 0.00 in 0 W/m2
03:50 57.0 °F 54.1 °F 30.03 in Calm   3.0 mph 90% 0.00 in 0 W/m2
03:55 57.1 °F 54.2 °F 30.03 in NNW 1.0 mph 3.0 mph 90% 0.00 in 0 W/m2
04:02 57.1 °F 54.2 °F 30.03 in Calm     90% 0.00 in 0 W/m2
04:08 57.1 °F 54.2 °F 30.03 in Calm     90% 0.00 in 0 W/m2
04:13 57.0 °F 54.1 °F 30.03 in Calm     90% 0.00 in 0 W/m2
04:20 57.0 °F 54.1 °F 30.04 in Calm     90% 0.00 in 0 W/m2
04:25 57.0 °F 54.1 °F 30.04 in Calm   1.0 mph 90% 0.00 in 0 W/m2
04:32 56.9 °F 54.0 °F 30.04 in Calm     90% 0.00 in 0 W/m2
04:38 57.0 °F 54.1 °F 30.04 in Calm     90% 0.00 in 0 W/m2
04:43 56.9 °F 54.0 °F 30.04 in Calm   1.0 mph 90% 0.00 in 0 W/m2
04:50 57.0 °F 54.1 °F 30.04 in Calm     90% 0.00 in 0 W/m2
04:55 57.0 °F 54.1 °F 30.04 in Calm     90% 0.00 in 0 W/m2
05:02 56.9 °F 54.0 °F 30.05 in Calm     90% 0.00 in 0 W/m2
05:08 56.9 °F 54.0 °F 30.05 in Calm     90% 0.00 in 0 W/m2
05:13 56.9 °F 54.0 °F 30.05 in Calm   1.0 mph 90% 0.00 in 0 W/m2
05:19 56.8 °F 53.9 °F 30.06 in Calm     90% 0.00 in 0 W/m2
05:26 56.8 °F 53.9 °F 30.06 in Calm     90% 0.00 in 0 W/m2
05:32 56.8 °F 54.2 °F 30.06 in Calm     91% 0.00 in 0 W/m2
05:38 56.8 °F 54.2 °F 30.06 in Calm     91% 0.00 in 0 W/m2
05:43 56.8 °F 54.2 °F 30.06 in Calm     91% 0.00 in 0 W/m2
05:50 56.8 °F 54.2 °F 30.06 in Calm     91% 0.00 in 0 W/m2
05:55 56.6 °F 54.0 °F 30.06 in Calm     91% 0.00 in 0 W/m2
06:02 56.5 °F 53.9 °F 30.06 in Calm     91% 0.00 in 0 W/m2
06:08 56.3 °F 53.7 °F 30.07 in Calm     91% 0.00 in 0 W/m2
06:13 56.0 °F 53.4 °F 30.07 in Calm     91% 0.00 in 0 W/m2
06:19 55.8 °F 53.2 °F 30.07 in Calm     91% 0.00 in 0 W/m2
06:26 55.6 °F 53.0 °F 30.07 in Calm     91% 0.00 in 5 W/m2
06:32 55.4 °F 52.8 °F 30.08 in Calm     91% 0.00 in 9 W/m2
06:38 55.2 °F 52.6 °F 30.08 in Calm     91% 0.00 in 14 W/m2
06:43 55.0 °F 52.4 °F 30.08 in Calm     91% 0.00 in 23 W/m2
06:49 54.9 °F 52.6 °F 30.08 in Calm     92% 0.00 in 26 W/m2
06:56 55.0 °F 52.7 °F 30.08 in Calm     92% 0.00 in 35 W/m2
07:02 55.4 °F 53.1 °F 30.08 in Calm     92% 0.00 in 44 W/m2
07:08 55.7 °F 53.4 °F 30.09 in Calm     92% 0.00 in 67 W/m2
07:14 56.1 °F 53.8 °F 30.08 in Calm     92% 0.00 in 98 W/m2
07:19 56.5 °F 54.5 °F 30.08 in Calm     93% 0.00 in 69 W/m2
07:25 56.7 °F 54.7 °F 30.09 in Calm     93% 0.00 in 63 W/m2
07:32 56.8 °F 54.5 °F 30.09 in Calm     92% 0.00 in 62 W/m2
07:38 57.0 °F 55.0 °F 30.09 in Calm     93% 0.00 in 135 W/m2
07:43 57.3 °F 55.0 °F 30.09 in Calm     92% 0.00 in 156 W/m2
07:49 57.5 °F 55.5 °F 30.09 in Calm     93% 0.00 in 172 W/m2
07:55 57.8 °F 55.5 °F 30.09 in Calm     92% 0.00 in 160 W/m2
08:02 57.9 °F 55.6 °F 30.10 in Calm     92% 0.00 in 134 W/m2
08:08 58.0 °F 55.4 °F 30.10 in Calm     91% 0.00 in 105 W/m2
08:14 58.5 °F 55.6 °F 30.10 in Calm     90% 0.00 in 91 W/m2
08:19 58.9 °F 55.7 °F 30.10 in Calm     89% 0.00 in 97 W/m2
08:25 59.2 °F 55.0 °F 30.10 in Calm     86% 0.00 in 97 W/m2
08:32 59.7 °F 55.5 °F 30.10 in Calm     86% 0.00 in 79 W/m2
08:38 59.8 °F 55.3 °F 30.10 in Calm     85% 0.00 in 76 W/m2
08:43 60.3 °F 55.8 °F 30.11 in Calm     85% 0.00 in 153 W/m2
08:49 60.7 °F 55.8 °F 30.11 in Calm     84% 0.00 in 193 W/m2
08:56 60.9 °F 55.7 °F 30.11 in Calm     83% 0.00 in 141 W/m2
09:02 61.0 °F 55.5 °F 30.11 in Calm     82% 0.00 in 135 W/m2
09:08 61.3 °F 55.4 °F 30.11 in Calm     81% 0.00 in 155 W/m2
09:14 61.8 °F 55.6 °F 30.11 in Calm     80% 0.00 in 77 W/m2
09:19 62.1 °F 54.8 °F 30.11 in Calm     77% 0.00 in 98 W/m2
09:26 62.2 °F 54.5 °F 30.11 in Calm   1.0 mph 76% 0.00 in 290 W/m2
09:32 62.8 °F 55.1 °F 30.11 in NNW 1.0 mph 1.0 mph 76% 0.00 in 522 W/m2
09:38 63.4 °F 54.2 °F 30.12 in NNW 2.0 mph 4.0 mph 72% 0.00 in 543 W/m2
09:43 64.0 °F 53.6 °F 30.12 in NNW 2.0 mph 2.0 mph 69% 0.00 in 557 W/m2
09:49 64.3 °F 52.7 °F 30.12 in NNW 2.0 mph 2.0 mph 66% 0.00 in 577 W/m2
09:55 64.8 °F 53.2 °F 30.12 in North 2.0 mph 4.0 mph 66% 0.00 in 591 W/m2
10:02 65.2 °F 53.6 °F 30.12 in North 2.0 mph 2.0 mph 66% 0.00 in 603 W/m2
10:08 65.8 °F 52.9 °F 30.12 in WNW 1.0 mph 3.0 mph 63% 0.00 in 617 W/m2
10:14 66.5 °F 53.9 °F 30.12 in NNW 1.0 mph 3.0 mph 64% 0.00 in 633 W/m2
10:19 67.4 °F 53.0 °F 30.12 in NNW 1.0 mph 1.0 mph 60% 0.00 in 643 W/m2
10:25 67.9 °F 51.1 °F 30.12 in NNW 1.0 mph 3.0 mph 55% 0.00 in 656 W/m2
10:32 68.3 °F 52.9 °F 30.12 in NNW 2.0 mph 2.0 mph 58% 0.00 in 687 W/m2
10:38 68.0 °F 51.2 °F 30.12 in NNE 1.0 mph 4.0 mph 55% 0.00 in 744 W/m2
10:44 68.0 °F 52.2 °F 30.12 in NNW 2.0 mph 2.0 mph 57% 0.00 in 185 W/m2
10:49 68.1 °F 51.3 °F 30.12 in North 1.0 mph 5.0 mph 55% 0.00 in 766 W/m2
10:55 68.5 °F 52.7 °F 30.12 in NNW 2.0 mph 5.0 mph 57% 0.00 in 197 W/m2
11:02 67.4 °F 50.7 °F 30.12 in NW 1.0 mph 1.0 mph 55% 0.00 in 158 W/m2
11:08 68.2 °F 53.3 °F 30.12 in NW 1.0 mph 3.0 mph 59% 0.00 in 842 W/m2
11:13 68.2 °F 50.9 °F 30.12 in WNW 1.0 mph 2.0 mph 54% 0.00 in 218 W/m2
11:20 68.0 °F 50.7 °F 30.12 in NW 2.0 mph 5.0 mph 54% 0.00 in 842 W/m2
11:25 68.1 °F 50.8 °F 30.12 in North 3.0 mph 5.0 mph 54% 0.00 in 849 W/m2
11:32 69.4 °F 53.0 °F 30.13 in NNW 3.0 mph 4.0 mph 56% 0.00 in 875 W/m2
11:38 69.5 °F 53.6 °F 30.13 in North 2.0 mph 5.0 mph 57% 0.00 in 863 W/m2
11:43 69.3 °F 51.4 °F 30.13 in NW 3.0 mph 6.0 mph 53% 0.00 in 889 W/m2
11:49 67.0 °F 50.8 °F 30.13 in NW 3.0 mph 4.0 mph 56% 0.00 in 206 W/m2
11:55 67.4 °F 51.6 °F 30.13 in NNW 3.0 mph 7.0 mph 57% 0.00 in 842 W/m2
12:02 69.0 °F 52.6 °F 30.12 in North 2.0 mph 5.0 mph 56% 0.00 in 930 W/m2
12:08 67.9 °F 52.1 °F 30.13 in NW 3.0 mph 9.0 mph 57% 0.00 in 199 W/m2
12:14 67.9 °F 52.6 °F 30.12 in North 2.0 mph 3.0 mph 58% 0.00 in 867 W/m2
12:20 69.6 °F 54.6 °F 30.12 in SW 1.0 mph 6.0 mph 59% 0.00 in 956 W/m2
12:25 67.7 °F 50.5 °F 30.13 in NW 3.0 mph 6.0 mph 54% 0.00 in 214 W/m2
12:32 66.3 °F 53.8 °F 30.13 in NW 4.0 mph 4.0 mph 64% 0.00 in 301 W/m2
12:38 66.5 °F 49.3 °F 30.13 in NW 3.0 mph 4.0 mph 54% 0.00 in 308 W/m2
12:43 68.1 °F 51.8 °F 30.13 in NW 3.0 mph 4.0 mph 56% 0.00 in 940 W/m2
12:49 69.7 °F 51.8 °F 30.13 in North 3.0 mph 8.0 mph 53% 0.00 in 1042 W/m2
12:55 67.4 °F 53.0 °F 30.13 in NNE 4.0 mph 8.0 mph 60% 0.00 in 195 W/m2
13:02 66.2 °F 50.0 °F 30.13 in NW 2.0 mph 3.0 mph 56% 0.00 in 279 W/m2
13:08 68.1 °F 52.3 °F 30.12 in NNE 2.0 mph 3.0 mph 57% 0.00 in 1042 W/m2
13:14 67.1 °F 48.4 °F 30.13 in NNW 3.0 mph 4.0 mph 51% 0.00 in 216 W/m2
13:19 68.8 °F 52.0 °F 30.12 in NNW 3.0 mph 3.0 mph 55% 0.00 in 884 W/m2
13:26 69.4 °F 52.5 °F 30.13 in WNW 2.0 mph 6.0 mph 55% 0.00 in 898 W/m2
13:32 68.1 °F 51.8 °F 30.13 in NW 3.0 mph 4.0 mph 56% 0.00 in 248 W/m2
13:38 68.8 °F 49.4 °F 30.12 in NNW 3.0 mph 4.0 mph 50% 0.00 in 865 W/m2
13:43 68.8 °F 52.0 °F 30.13 in NW 3.0 mph 7.0 mph 55% 0.00 in 842 W/m2
13:50 68.4 °F 47.4 °F 30.13 in NNW 3.0 mph 3.0 mph 47% 0.00 in 846 W/m2
13:55 69.1 °F 52.2 °F 30.13 in West 3.0 mph 3.0 mph 55% 0.00 in 842 W/m2
14:02 69.7 °F 54.3 °F 30.13 in NW 2.0 mph 3.0 mph 58% 0.00 in 840 W/m2
14:08 69.5 °F 49.5 °F 30.13 in ESE 2.0 mph 4.0 mph 49% 0.00 in 831 W/m2
14:14 69.7 °F 50.2 °F 30.14 in NNW 2.0 mph 3.0 mph 50% 0.00 in 817 W/m2
14:20 69.2 °F 50.8 °F 30.13 in NW 3.0 mph 3.0 mph 52% 0.00 in 803 W/m2
14:25 69.0 °F 49.0 °F 30.13 in NNE 3.0 mph 9.0 mph 49% 0.00 in 791 W/m2
14:32 69.0 °F 49.6 °F 30.13 in North 3.0 mph 4.0 mph 50% 0.00 in 789 W/m2
14:38 68.8 °F 49.4 °F 30.13 in NNW 3.0 mph 7.0 mph 50% 0.00 in 789 W/m2
14:43 68.8 °F 48.3 °F 30.14 in WNW 2.0 mph 3.0 mph 48% 0.00 in 779 W/m2
14:49 69.2 °F 48.7 °F 30.14 in NW 2.0 mph 2.0 mph 48% 0.00 in 770 W/m2
14:55 69.2 °F 48.7 °F 30.14 in NNW 2.0 mph 4.0 mph 48% 0.00 in 768 W/m2
15:02 69.3 °F 48.2 °F 30.13 in NNW 2.0 mph 3.0 mph 47% 0.00 in 768 W/m2
15:08 69.8 °F 49.2 °F 30.14 in NW 2.0 mph 5.0 mph 48% 0.00 in 745 W/m2
15:13 69.6 °F 49.6 °F 30.13 in WNW 2.0 mph 2.0 mph 49% 0.00 in 737 W/m2
15:20 70.1 °F 48.9 °F 30.13 in North 2.0 mph 2.0 mph 47% 0.00 in 715 W/m2
15:25 69.1 °F 49.7 °F 30.13 in NW 2.0 mph 4.0 mph 50% 0.00 in 696 W/m2
15:32 69.4 °F 47.1 °F 30.13 in NNW 2.0 mph 3.0 mph 45% 0.00 in 691 W/m2
15:38 69.4 °F 49.4 °F 30.13 in NW 1.0 mph 3.0 mph 49% 0.00 in 673 W/m2
15:43 69.3 °F 47.0 °F 30.14 in NW 1.0 mph 1.0 mph 45% 0.00 in 666 W/m2
15:49 69.4 °F 50.5 °F 30.14 in NNW 1.0 mph 2.0 mph 51% 0.00 in 670 W/m2
15:56 68.7 °F 48.8 °F 30.14 in West 2.0 mph 2.0 mph 49% 0.00 in 647 W/m2
16:03 69.4 °F 51.0 °F 30.14 in NNW 1.0 mph 2.0 mph 52% 0.00 in 629 W/m2
16:10 69.6 °F 49.0 °F 30.14 in WNW 1.0 mph 1.0 mph 48% 0.00 in 610 W/m2
16:18 68.9 °F 48.9 °F 30.14 in WSW 2.0 mph 2.0 mph 49% 0.00 in 615 W/m2
16:23 69.6 °F 50.1 °F 30.14 in NW 1.0 mph 2.0 mph 50% 0.00 in 603 W/m2
16:29 69.1 °F 49.1 °F 30.14 in West 1.0 mph 1.0 mph 49% 0.00 in 568 W/m2
16:35 69.1 °F 50.2 °F 30.14 in WNW 1.0 mph 7.0 mph 51% 0.00 in 545 W/m2
16:42 68.4 °F 48.5 °F 30.14 in NNW 2.0 mph 2.0 mph 49% 0.00 in 487 W/m2
16:48 67.9 °F 48.0 °F 30.15 in NNW 2.0 mph 2.0 mph 49% 0.00 in 399 W/m2
16:55 67.3 °F 46.9 °F 30.15 in NNW 2.0 mph 2.0 mph 48% 0.00 in 116 W/m2
17:02 66.8 °F 48.1 °F 30.15 in NNW 1.0 mph 1.0 mph 51% 0.00 in 443 W/m2
17:08 67.0 °F 46.7 °F 30.15 in NNW 1.0 mph 2.0 mph 48% 0.00 in 410 W/m2
17:14 67.4 °F 46.5 °F 30.15 in NW 1.0 mph 1.0 mph 47% 0.00 in 387 W/m2
17:20 67.9 °F 48.0 °F 30.15 in NW 1.0 mph 2.0 mph 49% 0.00 in 373 W/m2
17:25 68.1 °F 48.2 °F 30.15 in NW 1.0 mph 2.0 mph 49% 0.00 in 327 W/m2
17:32 67.9 °F 47.5 °F 30.15 in NW 1.0 mph 1.0 mph 48% 0.00 in 163 W/m2
17:38 67.7 °F 48.9 °F 30.15 in NW 1.0 mph 1.0 mph 51% 0.00 in 95 W/m2
17:43 67.6 °F 47.8 °F 30.15 in NW 1.0 mph 3.0 mph 49% 0.00 in 163 W/m2
17:49 67.2 °F 47.4 °F 30.15 in NW 1.0 mph 1.0 mph 49% 0.00 in 95 W/m2
17:56 66.8 °F 47.6 °F 30.15 in NW 1.0 mph 3.0 mph 50% 0.00 in 79 W/m2
18:02 66.1 °F 46.9 °F 30.16 in North 2.0 mph 3.0 mph 50% 0.00 in 74 W/m2
18:08 65.7 °F 47.1 °F 30.15 in NW 1.0 mph 3.0 mph 51% 0.00 in 74 W/m2
18:13 65.5 °F 47.9 °F 30.15 in NW 1.0 mph 1.0 mph 53% 0.00 in 74 W/m2
18:20 65.4 °F 48.8 °F 30.15 in Calm     55% 0.00 in 63 W/m2
18:25 65.1 °F 47.0 °F 30.16 in NW 1.0 mph 3.0 mph 52% 0.00 in 58 W/m2
18:32 64.9 °F 47.4 °F 30.16 in NW 1.0 mph 1.0 mph 53% 0.00 in 54 W/m2
18:38 64.7 °F 48.2 °F 30.16 in Calm   2.0 mph 55% 0.00 in 51 W/m2
18:44 64.4 °F 48.4 °F 30.16 in Calm     56% 0.00 in 47 W/m2
18:49 64.2 °F 48.6 °F 30.16 in Calm     57% 0.00 in 44 W/m2
18:55 63.9 °F 48.8 °F 30.16 in Calm     58% 0.00 in 42 W/m2
19:02 63.6 °F 49.0 °F 30.16 in Calm     59% 0.00 in 37 W/m2
19:08 63.3 °F 50.1 °F 30.16 in Calm     62% 0.00 in 32 W/m2
19:13 63.0 °F 51.5 °F 30.16 in Calm     66% 0.00 in 28 W/m2
19:19 62.6 °F 51.9 °F 30.16 in Calm     68% 0.00 in 23 W/m2
19:26 62.2 °F 51.9 °F 30.17 in Calm     69% 0.00 in 19 W/m2
19:32 61.7 °F 51.8 °F 30.17 in Calm     70% 0.00 in 14 W/m2
19:38 61.1 °F 51.6 °F 30.17 in Calm     71% 0.00 in 11 W/m2
19:43 60.5 °F 51.0 °F 30.17 in Calm     71% 0.00 in 7 W/m2
19:49 60.0 °F 50.9 °F 30.17 in Calm     72% 0.00 in 0 W/m2
19:56 59.5 °F 50.8 °F 30.17 in Calm     73% 0.00 in 0 W/m2
20:02 58.9 °F 51.0 °F 30.17 in Calm     75% 0.00 in 0 W/m2
20:08 58.2 °F 50.3 °F 30.17 in Calm     75% 0.00 in 0 W/m2
20:13 57.6 °F 50.1 °F 30.17 in Calm     76% 0.00 in 0 W/m2
20:20 57.1 °F 50.0 °F 30.18 in Calm     77% 0.00 in 0 W/m2
20:25 56.7 °F 49.9 °F 30.18 in Calm     78% 0.00 in 0 W/m2
20:32 56.3 °F 49.9 °F 30.18 in Calm     79% 0.00 in 0 W/m2
20:38 55.9 °F 50.2 °F 30.18 in Calm     81% 0.00 in 0 W/m2
20:44 55.5 °F 49.8 °F 30.18 in Calm     81% 0.00 in 0 W/m2
20:50 55.2 °F 50.1 °F 30.18 in Calm     83% 0.00 in 0 W/m2
20:55 54.9 °F 49.8 °F 30.18 in Calm     83% 0.00 in 0 W/m2
21:02 54.6 °F 49.9 °F 30.18 in Calm     84% 0.00 in 0 W/m2
21:08 54.3 °F 49.6 °F 30.18 in Calm     84% 0.00 in 0 W/m2
21:13 54.1 °F 49.4 °F 30.18 in Calm     84% 0.00 in 0 W/m2
21:19 53.9 °F 49.5 °F 30.19 in Calm     85% 0.00 in 0 W/m2
21:26 53.6 °F 49.2 °F 30.19 in Calm     85% 0.00 in 0 W/m2
21:32 53.5 °F 49.4 °F 30.19 in Calm     86% 0.00 in 0 W/m2
21:38 53.3 °F 49.2 °F 30.19 in Calm     86% 0.00 in 0 W/m2
21:44 53.1 °F 49.3 °F 30.19 in Calm     87% 0.00 in 0 W/m2
21:49 53.0 °F 49.2 °F 30.20 in Calm     87% 0.00 in 0 W/m2
21:55 52.7 °F 48.9 °F 30.20 in Calm     87% 0.00 in 0 W/m2
22:03 52.5 °F 49.0 °F 30.19 in Calm     88% 0.00 in 0 W/m2
22:10 52.5 °F 49.0 °F 30.20 in Calm     88% 0.00 in 0 W/m2
22:15 52.3 °F 48.9 °F 30.20 in Calm     88% 0.00 in 0 W/m2
22:22 52.1 °F 49.0 °F 30.20 in Calm     89% 0.00 in 0 W/m2
22:28 52.0 °F 48.9 °F 30.20 in Calm     89% 0.00 in 0 W/m2
22:33 51.9 °F 48.8 °F 30.20 in Calm     89% 0.00 in 0 W/m2
22:40 51.7 °F 48.6 °F 30.20 in Calm     89% 0.00 in 0 W/m2
22:52 51.2 °F 48.1 °F 30.20 in Calm     89% 0.00 in 0 W/m2
22:58 51.0 °F 47.9 °F 30.21 in Calm     89% 0.00 in 0 W/m2
23:04 50.9 °F 48.1 °F 30.21 in Calm     90% 0.00 in 0 W/m2
23:09 50.8 °F 48.0 °F 30.21 in Calm     90% 0.00 in 0 W/m2
23:25 51.1 °F 48.6 °F 30.21 in Calm     91% 0.00 in 0 W/m2
23:32 51.0 °F 48.2 °F 30.21 in Calm     90% 0.00 in 0 W/m2
23:35 50.8 °F 48.0 °F 30.21 in Calm     90% 0.00 in 0 W/m2
23:42 50.7 °F 48.2 °F 30.21 in Calm     91% 0.00 in 0 W/m2
23:48 50.6 °F 48.1 °F 30.21 in Calm     91% 0.00 in 0 W/m2
23:50 50.6 °F 48.1 °F 30.22 in Calm     91% 0.00 in 0 W/m2
23:55 50.4 °F 47.9 °F 30.22 in Calm     91% 0.00 in 0 W/m2
23:59 50.5 °F 48.0 °F 30.22 in Calm     91% 0.00 in 0 W/m2
Country Meadow, Clay, NY, USA
Compliments of Weather Underground - 2 mb